sensor_id;sensor_type;location;lat;lon;timestamp;pressure;altitude;pressure_sealevel;temperature;humidity
81057;BME280;70563;50.084;14.468;2023-12-07T00:01:03;98773.94;;;0.61;92.54
81057;BME280;70563;50.084;14.468;2023-12-07T00:03:28;98785.38;;;0.59;92.82
81057;BME280;70563;50.084;14.468;2023-12-07T00:05:53;98782.19;;;0.55;92.56
81057;BME280;70563;50.084;14.468;2023-12-07T00:08:19;98784.56;;;0.58;93.26
81057;BME280;70563;50.084;14.468;2023-12-07T00:10:44;98788.81;;;0.70;95.41
81057;BME280;70563;50.084;14.468;2023-12-07T00:13:09;98784.31;;;0.72;94.87
81057;BME280;70563;50.084;14.468;2023-12-07T00:15:35;98785.50;;;0.68;94.50
81057;BME280;70563;50.084;14.468;2023-12-07T00:18:00;98790.81;;;0.67;93.84
81057;BME280;70563;50.084;14.468;2023-12-07T00:20:29;98783.97;;;0.66;94.17
81057;BME280;70563;50.084;14.468;2023-12-07T00:22:55;98792.22;;;0.60;93.70
81057;BME280;70563;50.084;14.468;2023-12-07T00:25:21;98795.41;;;0.63;94.10
81057;BME280;70563;50.084;14.468;2023-12-07T00:27:47;98792.13;;;0.61;93.29
81057;BME280;70563;50.084;14.468;2023-12-07T00:30:13;98798.25;;;0.60;92.95
81057;BME280;70563;50.084;14.468;2023-12-07T00:32:38;98793.78;;;0.62;92.55
81057;BME280;70563;50.084;14.468;2023-12-07T00:35:05;98808.78;;;0.70;91.78
81057;BME280;70563;50.084;14.468;2023-12-07T00:37:32;98795.66;;;0.94;92.67
81057;BME280;70563;50.084;14.468;2023-12-07T00:39:58;98800.47;;;1.10;90.56
81057;BME280;70563;50.084;14.468;2023-12-07T00:42:23;98797.53;;;1.03;92.01
81057;BME280;70563;50.084;14.468;2023-12-07T00:44:48;98791.25;;;0.94;90.34
81057;BME280;70563;50.084;14.468;2023-12-07T00:47:14;98795.53;;;0.95;92.31
81057;BME280;70563;50.084;14.468;2023-12-07T00:49:39;98794.13;;;0.91;91.71
81057;BME280;70563;50.084;14.468;2023-12-07T00:52:08;98796.38;;;0.85;91.65
81057;BME280;70563;50.084;14.468;2023-12-07T00:54:34;98810.91;;;0.87;92.71
81057;BME280;70563;50.084;14.468;2023-12-07T00:56:59;98810.78;;;0.78;91.76
81057;BME280;70563;50.084;14.468;2023-12-07T00:59:24;98804.16;;;0.85;93.63
81057;BME280;70563;50.084;14.468;2023-12-07T01:01:50;98809.13;;;0.88;93.21
81057;BME280;70563;50.084;14.468;2023-12-07T01:04:15;98806.63;;;0.97;94.37
81057;BME280;70563;50.084;14.468;2023-12-07T01:06:41;98804.28;;;1.06;94.64
81057;BME280;70563;50.084;14.468;2023-12-07T01:09:08;98806.38;;;1.12;93.31
81057;BME280;70563;50.084;14.468;2023-12-07T01:11:37;98820.09;;;1.14;93.57
81057;BME280;70563;50.084;14.468;2023-12-07T01:14:02;98815.59;;;1.16;93.89
81057;BME280;70563;50.084;14.468;2023-12-07T01:16:27;98819.50;;;1.10;94.68
81057;BME280;70563;50.084;14.468;2023-12-07T01:18:53;98827.69;;;1.06;93.93
81057;BME280;70563;50.084;14.468;2023-12-07T01:21:18;98822.25;;;1.09;93.02
81057;BME280;70563;50.084;14.468;2023-12-07T01:23:43;98816.00;;;1.00;92.19
81057;BME280;70563;50.084;14.468;2023-12-07T01:26:09;98822.09;;;0.99;92.85
81057;BME280;70563;50.084;14.468;2023-12-07T01:28:34;98819.78;;;0.96;91.71
81057;BME280;70563;50.084;14.468;2023-12-07T01:30:59;98815.28;;;0.87;91.55
81057;BME280;70563;50.084;14.468;2023-12-07T01:33:25;98822.81;;;0.90;91.83
81057;BME280;70563;50.084;14.468;2023-12-07T01:35:51;98824.16;;;0.95;91.75
81057;BME280;70563;50.084;14.468;2023-12-07T01:38:16;98821.19;;;0.89;91.66
81057;BME280;70563;50.084;14.468;2023-12-07T01:40:42;98822.97;;;0.88;92.65
81057;BME280;70563;50.084;14.468;2023-12-07T01:43:07;98822.59;;;0.82;91.46
81057;BME280;70563;50.084;14.468;2023-12-07T01:45:32;98825.56;;;0.88;91.45
81057;BME280;70563;50.084;14.468;2023-12-07T01:47:58;98831.94;;;0.95;91.43
81057;BME280;70563;50.084;14.468;2023-12-07T01:50:25;98829.09;;;0.98;91.09
81057;BME280;70563;50.084;14.468;2023-12-07T01:52:57;98827.31;;;0.99;91.20
81057;BME280;70563;50.084;14.468;2023-12-07T01:55:27;98833.59;;;0.96;90.96
81057;BME280;70563;50.084;14.468;2023-12-07T01:57:53;98831.22;;;0.93;91.54
81057;BME280;70563;50.084;14.468;2023-12-07T02:00:19;98832.03;;;0.94;92.06
81057;BME280;70563;50.084;14.468;2023-12-07T02:02:45;98831.44;;;0.90;92.42
81057;BME280;70563;50.084;14.468;2023-12-07T02:05:13;98836.91;;;0.87;92.33
81057;BME280;70563;50.084;14.468;2023-12-07T02:07:41;98834.88;;;1.02;93.79
81057;BME280;70563;50.084;14.468;2023-12-07T02:10:07;98837.94;;;1.07;91.82
81057;BME280;70563;50.084;14.468;2023-12-07T02:12:32;98838.78;;;1.08;91.70
81057;BME280;70563;50.084;14.468;2023-12-07T02:14:58;98844.31;;;1.03;90.61
81057;BME280;70563;50.084;14.468;2023-12-07T02:17:30;98846.47;;;1.09;91.08
81057;BME280;70563;50.084;14.468;2023-12-07T02:22:37;98845.25;;;1.24;89.54
81057;BME280;70563;50.084;14.468;2023-12-07T02:25:06;98844.06;;;1.40;89.01
81057;BME280;70563;50.084;14.468;2023-12-07T02:27:37;98847.25;;;1.32;88.93
81057;BME280;70563;50.084;14.468;2023-12-07T02:30:03;98849.31;;;1.17;89.31
81057;BME280;70563;50.084;14.468;2023-12-07T02:32:29;98845.84;;;1.28;89.20
81057;BME280;70563;50.084;14.468;2023-12-07T02:34:54;98850.47;;;1.36;88.95
81057;BME280;70563;50.084;14.468;2023-12-07T02:37:21;98849.72;;;1.34;88.15
81057;BME280;70563;50.084;14.468;2023-12-07T02:39:48;98850.31;;;1.37;87.91
81057;BME280;70563;50.084;14.468;2023-12-07T02:42:14;98855.16;;;1.42;89.04
81057;BME280;70563;50.084;14.468;2023-12-07T02:44:42;98857.53;;;1.45;88.78
81057;BME280;70563;50.084;14.468;2023-12-07T02:47:08;98864.38;;;1.46;89.03
81057;BME280;70563;50.084;14.468;2023-12-07T02:49:33;98861.31;;;1.41;88.13
81057;BME280;70563;50.084;14.468;2023-12-07T02:51:58;98859.09;;;1.36;87.73
81057;BME280;70563;50.084;14.468;2023-12-07T02:54:24;98862.75;;;1.45;88.00
81057;BME280;70563;50.084;14.468;2023-12-07T02:56:49;98864.59;;;1.54;87.64
81057;BME280;70563;50.084;14.468;2023-12-07T02:59:15;98858.13;;;1.48;87.61
81057;BME280;70563;50.084;14.468;2023-12-07T03:01:40;98864.38;;;1.46;87.38
81057;BME280;70563;50.084;14.468;2023-12-07T03:04:05;98865.41;;;1.66;86.40
81057;BME280;70563;50.084;14.468;2023-12-07T03:06:31;98864.97;;;1.61;86.82
81057;BME280;70563;50.084;14.468;2023-12-07T03:08:56;98872.06;;;1.59;85.74
81057;BME280;70563;50.084;14.468;2023-12-07T03:11:22;98879.84;;;1.59;85.72
81057;BME280;70563;50.084;14.468;2023-12-07T03:13:48;98876.56;;;1.57;86.21
81057;BME280;70563;50.084;14.468;2023-12-07T03:16:14;98880.88;;;1.79;85.22
81057;BME280;70563;50.084;14.468;2023-12-07T03:18:39;98878.66;;;1.74;84.93
81057;BME280;70563;50.084;14.468;2023-12-07T03:21:04;98885.50;;;1.86;85.07
81057;BME280;70563;50.084;14.468;2023-12-07T03:23:30;98880.66;;;1.82;84.68
81057;BME280;70563;50.084;14.468;2023-12-07T03:25:55;98886.78;;;1.81;84.41
81057;BME280;70563;50.084;14.468;2023-12-07T03:28:20;98887.25;;;1.86;85.14
81057;BME280;70563;50.084;14.468;2023-12-07T03:30:46;98891.78;;;1.72;84.75
81057;BME280;70563;50.084;14.468;2023-12-07T03:33:11;98898.44;;;1.65;85.17
81057;BME280;70563;50.084;14.468;2023-12-07T03:35:36;98896.44;;;1.58;85.04
81057;BME280;70563;50.084;14.468;2023-12-07T03:38:02;98908.13;;;1.74;84.93
81057;BME280;70563;50.084;14.468;2023-12-07T03:40:27;98896.19;;;1.61;85.11
81057;BME280;70563;50.084;14.468;2023-12-07T03:42:53;98903.41;;;1.57;85.98
81057;BME280;70563;50.084;14.468;2023-12-07T03:45:18;98908.25;;;1.50;85.05
81057;BME280;70563;50.084;14.468;2023-12-07T03:47:43;98913.47;;;1.50;85.65
81057;BME280;70563;50.084;14.468;2023-12-07T03:50:09;98904.94;;;1.60;85.25
81057;BME280;70563;50.084;14.468;2023-12-07T03:52:34;98906.47;;;1.62;84.84
81057;BME280;70563;50.084;14.468;2023-12-07T03:55:00;98907.88;;;1.66;84.55
81057;BME280;70563;50.084;14.468;2023-12-07T03:57:25;98913.38;;;1.52;86.53
81057;BME280;70563;50.084;14.468;2023-12-07T03:59:50;98918.53;;;1.63;86.50
81057;BME280;70563;50.084;14.468;2023-12-07T04:02:17;98919.16;;;1.56;86.95
81057;BME280;70563;50.084;14.468;2023-12-07T04:04:42;98918.06;;;1.69;85.93
81057;BME280;70563;50.084;14.468;2023-12-07T04:07:08;98914.50;;;1.70;85.33
81057;BME280;70563;50.084;14.468;2023-12-07T04:09:33;98914.28;;;1.73;85.76
81057;BME280;70563;50.084;14.468;2023-12-07T04:11:59;98915.41;;;1.81;84.59
81057;BME280;70563;50.084;14.468;2023-12-07T04:14:24;98919.19;;;1.88;84.63
81057;BME280;70563;50.084;14.468;2023-12-07T04:16:49;98924.78;;;1.83;84.06
81057;BME280;70563;50.084;14.468;2023-12-07T04:19:15;98932.88;;;1.69;84.93
81057;BME280;70563;50.084;14.468;2023-12-07T04:21:40;98931.31;;;1.55;85.37
81057;BME280;70563;50.084;14.468;2023-12-07T04:24:06;98939.63;;;1.60;86.08
81057;BME280;70563;50.084;14.468;2023-12-07T04:26:31;98934.06;;;1.65;85.40
81057;BME280;70563;50.084;14.468;2023-12-07T04:28:57;98941.50;;;1.69;85.30
81057;BME280;70563;50.084;14.468;2023-12-07T04:31:22;98934.75;;;1.67;85.95
81057;BME280;70563;50.084;14.468;2023-12-07T04:33:47;98943.84;;;1.72;86.07
81057;BME280;70563;50.084;14.468;2023-12-07T04:36:13;98940.69;;;1.58;85.79
81057;BME280;70563;50.084;14.468;2023-12-07T04:38:38;98951.69;;;1.61;85.82
81057;BME280;70563;50.084;14.468;2023-12-07T04:41:04;98951.44;;;1.64;86.17
81057;BME280;70563;50.084;14.468;2023-12-07T04:43:29;98946.84;;;1.57;86.20
81057;BME280;70563;50.084;14.468;2023-12-07T04:45:54;98950.03;;;1.60;85.91
81057;BME280;70563;50.084;14.468;2023-12-07T04:48:20;98946.94;;;1.55;85.78
81057;BME280;70563;50.084;14.468;2023-12-07T04:50:45;98950.59;;;1.64;85.89
81057;BME280;70563;50.084;14.468;2023-12-07T04:53:11;98955.94;;;1.73;85.32
81057;BME280;70563;50.084;14.468;2023-12-07T04:55:36;98955.66;;;1.76;85.90
81057;BME280;70563;50.084;14.468;2023-12-07T04:58:01;98956.84;;;1.72;84.58
81057;BME280;70563;50.084;14.468;2023-12-07T05:00:27;98957.22;;;1.68;85.73
81057;BME280;70563;50.084;14.468;2023-12-07T05:02:52;98959.47;;;1.84;85.40
81057;BME280;70563;50.084;14.468;2023-12-07T05:05:18;98963.50;;;1.65;85.20
81057;BME280;70563;50.084;14.468;2023-12-07T05:07:44;98962.91;;;1.62;85.19
81057;BME280;70563;50.084;14.468;2023-12-07T05:10:09;98969.66;;;1.75;85.12
81057;BME280;70563;50.084;14.468;2023-12-07T05:12:35;98966.09;;;1.76;84.93
81057;BME280;70563;50.084;14.468;2023-12-07T05:15:01;98970.59;;;1.63;85.39
81057;BME280;70563;50.084;14.468;2023-12-07T05:17:28;98976.75;;;1.51;85.83
81057;BME280;70563;50.084;14.468;2023-12-07T05:19:53;98976.75;;;1.51;85.67
81057;BME280;70563;50.084;14.468;2023-12-07T05:22:18;98978.44;;;1.52;85.56
81057;BME280;70563;50.084;14.468;2023-12-07T05:24:44;98975.44;;;1.79;85.05
81057;BME280;70563;50.084;14.468;2023-12-07T05:27:09;98974.63;;;1.79;84.95
81057;BME280;70563;50.084;14.468;2023-12-07T05:29:35;98976.50;;;1.76;84.90
81057;BME280;70563;50.084;14.468;2023-12-07T05:32:00;98970.59;;;1.74;84.76
81057;BME280;70563;50.084;14.468;2023-12-07T05:34:26;98978.19;;;1.78;85.42
81057;BME280;70563;50.084;14.468;2023-12-07T05:36:51;98981.72;;;1.76;85.51
81057;BME280;70563;50.084;14.468;2023-12-07T05:39:16;98974.63;;;1.67;85.43
81057;BME280;70563;50.084;14.468;2023-12-07T05:41:42;98980.06;;;1.75;85.99
81057;BME280;70563;50.084;14.468;2023-12-07T05:44:08;98981.28;;;1.60;85.87
81057;BME280;70563;50.084;14.468;2023-12-07T05:46:35;98985.63;;;1.60;86.08
81057;BME280;70563;50.084;14.468;2023-12-07T05:49:01;98991.69;;;1.60;88.18
81057;BME280;70563;50.084;14.468;2023-12-07T05:51:27;98986.94;;;1.65;86.64
81057;BME280;70563;50.084;14.468;2023-12-07T05:53:52;98984.81;;;1.70;86.38
81057;BME280;70563;50.084;14.468;2023-12-07T05:56:18;98992.72;;;1.80;86.61
81057;BME280;70563;50.084;14.468;2023-12-07T05:58:45;98998.06;;;1.79;86.92
81057;BME280;70563;50.084;14.468;2023-12-07T06:01:10;98991.06;;;1.79;88.54
81057;BME280;70563;50.084;14.468;2023-12-07T06:03:36;99003.03;;;1.70;86.42
81057;BME280;70563;50.084;14.468;2023-12-07T06:06:01;99000.66;;;1.67;85.94
81057;BME280;70563;50.084;14.468;2023-12-07T06:08:26;98998.28;;;1.75;87.88
81057;BME280;70563;50.084;14.468;2023-12-07T06:10:52;99001.25;;;1.71;85.70
81057;BME280;70563;50.084;14.468;2023-12-07T06:13:17;99002.78;;;1.73;87.16
81057;BME280;70563;50.084;14.468;2023-12-07T06:15:43;99002.31;;;1.80;87.01
81057;BME280;70563;50.084;14.468;2023-12-07T06:18:08;99003.59;;;1.85;89.31
81057;BME280;70563;50.084;14.468;2023-12-07T06:20:34;99007.50;;;1.80;88.11
81057;BME280;70563;50.084;14.468;2023-12-07T06:23:00;99008.22;;;1.93;87.33
81057;BME280;70563;50.084;14.468;2023-12-07T06:25:26;99002.16;;;1.92;88.07
81057;BME280;70563;50.084;14.468;2023-12-07T06:27:51;99005.63;;;1.82;85.72
81057;BME280;70563;50.084;14.468;2023-12-07T06:30:16;99012.34;;;1.84;87.47
81057;BME280;70563;50.084;14.468;2023-12-07T06:32:43;99010.84;;;1.82;86.57
81057;BME280;70563;50.084;14.468;2023-12-07T06:35:12;99010.72;;;1.83;87.25
81057;BME280;70563;50.084;14.468;2023-12-07T06:37:41;99021.72;;;1.75;86.75
81057;BME280;70563;50.084;14.468;2023-12-07T06:40:09;99021.47;;;1.79;86.18
81057;BME280;70563;50.084;14.468;2023-12-07T06:42:35;99028.34;;;1.80;86.81
81057;BME280;70563;50.084;14.468;2023-12-07T06:45:01;99028.34;;;1.80;85.49
81057;BME280;70563;50.084;14.468;2023-12-07T06:47:27;99030.00;;;1.69;85.50
81057;BME280;70563;50.084;14.468;2023-12-07T06:49:52;99031.78;;;1.69;86.20
81057;BME280;70563;50.084;14.468;2023-12-07T06:52:18;99032.84;;;1.66;87.05
81057;BME280;70563;50.084;14.468;2023-12-07T06:54:43;99038.88;;;1.67;86.54
81057;BME280;70563;50.084;14.468;2023-12-07T06:57:08;99043.25;;;1.66;86.66
81057;BME280;70563;50.084;14.468;2023-12-07T06:59:34;99041.47;;;1.67;86.95
81057;BME280;70563;50.084;14.468;2023-12-07T07:02:00;99046.56;;;1.68;86.28
81057;BME280;70563;50.084;14.468;2023-12-07T07:04:25;99044.91;;;1.67;86.73
81057;BME280;70563;50.084;14.468;2023-12-07T07:06:51;99033.53;;;1.68;86.29
81057;BME280;70563;50.084;14.468;2023-12-07T07:09:17;99042.22;;;1.69;86.72
81057;BME280;70563;50.084;14.468;2023-12-07T07:11:47;99043.50;;;1.74;86.78
81057;BME280;70563;50.084;14.468;2023-12-07T07:14:12;99050.38;;;1.64;86.55
81057;BME280;70563;50.084;14.468;2023-12-07T07:16:38;99041.97;;;1.61;87.63
81057;BME280;70563;50.084;14.468;2023-12-07T07:19:03;99049.88;;;1.70;87.60
81057;BME280;70563;50.084;14.468;2023-12-07T07:21:28;99051.44;;;1.62;87.32
81057;BME280;70563;50.084;14.468;2023-12-07T07:23:54;99052.72;;;1.67;87.78
81057;BME280;70563;50.084;14.468;2023-12-07T07:26:19;99057.22;;;1.65;87.65
81057;BME280;70563;50.084;14.468;2023-12-07T07:28:45;99055.69;;;1.74;88.01
81057;BME280;70563;50.084;14.468;2023-12-07T07:31:10;99050.13;;;1.67;87.68
81057;BME280;70563;50.084;14.468;2023-12-07T07:33:35;99057.56;;;1.72;86.95
81057;BME280;70563;50.084;14.468;2023-12-07T07:36:01;99064.56;;;1.83;86.83
81057;BME280;70563;50.084;14.468;2023-12-07T07:38:26;99066.22;;;1.84;86.93
81057;BME280;70563;50.084;14.468;2023-12-07T07:40:52;99063.16;;;1.79;86.45
81057;BME280;70563;50.084;14.468;2023-12-07T07:43:17;99059.59;;;1.80;85.84
81057;BME280;70563;50.084;14.468;2023-12-07T07:45:43;99063.63;;;1.84;86.56
81057;BME280;70563;50.084;14.468;2023-12-07T07:48:09;99063.84;;;1.81;86.13
81057;BME280;70563;50.084;14.468;2023-12-07T07:50:34;99061.25;;;1.81;86.10
81057;BME280;70563;50.084;14.468;2023-12-07T07:53:02;99068.34;;;1.90;86.89
81057;BME280;70563;50.084;14.468;2023-12-07T07:55:27;99061.84;;;1.95;86.37
81057;BME280;70563;50.084;14.468;2023-12-07T07:57:52;99064.91;;;2.00;87.47
81057;BME280;70563;50.084;14.468;2023-12-07T08:00:19;99062.06;;;2.04;85.74
81057;BME280;70563;50.084;14.468;2023-12-07T08:02:44;99066.88;;;2.19;85.44
81057;BME280;70563;50.084;14.468;2023-12-07T08:05:10;99068.66;;;2.30;84.54
81057;BME280;70563;50.084;14.468;2023-12-07T08:07:36;99067.25;;;2.26;84.54
81057;BME280;70563;50.084;14.468;2023-12-07T08:10:01;99058.38;;;2.17;84.53
81057;BME280;70563;50.084;14.468;2023-12-07T08:12:28;99061.91;;;2.28;84.76
81057;BME280;70563;50.084;14.468;2023-12-07T08:14:54;99068.38;;;2.44;85.90
81057;BME280;70563;50.084;14.468;2023-12-07T08:17:19;99070.38;;;2.52;84.38
81057;BME280;70563;50.084;14.468;2023-12-07T08:19:44;99063.19;;;2.44;83.18
81057;BME280;70563;50.084;14.468;2023-12-07T08:22:10;99072.94;;;2.20;82.88
81057;BME280;70563;50.084;14.468;2023-12-07T08:24:35;99071.03;;;2.22;84.46
81057;BME280;70563;50.084;14.468;2023-12-07T08:27:02;99072.56;;;2.24;84.71
81057;BME280;70563;50.084;14.468;2023-12-07T08:29:28;99079.78;;;2.43;83.43
81057;BME280;70563;50.084;14.468;2023-12-07T08:31:54;99075.47;;;2.54;82.51
81057;BME280;70563;50.084;14.468;2023-12-07T08:34:19;99082.25;;;2.45;83.56
81057;BME280;70563;50.084;14.468;2023-12-07T08:36:45;99078.44;;;2.49;83.53
81057;BME280;70563;50.084;14.468;2023-12-07T08:39:10;99078.00;;;2.44;82.66
81057;BME280;70563;50.084;14.468;2023-12-07T08:41:36;99069.66;;;2.50;83.05
81057;BME280;70563;50.084;14.468;2023-12-07T08:44:03;99079.28;;;2.49;82.77
81057;BME280;70563;50.084;14.468;2023-12-07T08:46:28;99086.50;;;2.46;84.23
81057;BME280;70563;50.084;14.468;2023-12-07T08:48:54;99088.13;;;2.58;84.43
81057;BME280;70563;50.084;14.468;2023-12-07T08:51:21;99094.03;;;2.71;84.09
81057;BME280;70563;50.084;14.468;2023-12-07T08:53:46;99089.69;;;2.61;82.67
81057;BME280;70563;50.084;14.468;2023-12-07T08:56:12;99094.69;;;2.53;82.97
81057;BME280;70563;50.084;14.468;2023-12-07T08:58:41;99092.75;;;2.55;82.85
81057;BME280;70563;50.084;14.468;2023-12-07T09:01:06;99098.78;;;2.66;82.90
81057;BME280;70563;50.084;14.468;2023-12-07T09:03:31;99099.75;;;2.65;83.91
81057;BME280;70563;50.084;14.468;2023-12-07T09:05:58;99099.06;;;2.52;82.97
81057;BME280;70563;50.084;14.468;2023-12-07T09:08:24;99102.88;;;2.48;83.64
81057;BME280;70563;50.084;14.468;2023-12-07T09:10:49;99106.28;;;2.48;85.09
81057;BME280;70563;50.084;14.468;2023-12-07T09:13:19;99103.59;;;2.39;83.58
81057;BME280;70563;50.084;14.468;2023-12-07T09:15:44;99105.47;;;2.48;84.94
81057;BME280;70563;50.084;14.468;2023-12-07T09:18:10;99112.84;;;2.43;83.53
81057;BME280;70563;50.084;14.468;2023-12-07T09:20:36;99100.53;;;2.34;83.51
81057;BME280;70563;50.084;14.468;2023-12-07T09:23:02;99108.56;;;2.31;84.11
81057;BME280;70563;50.084;14.468;2023-12-07T09:25:28;99105.47;;;2.37;83.66
81057;BME280;70563;50.084;14.468;2023-12-07T09:27:55;99111.88;;;2.44;83.69
81057;BME280;70563;50.084;14.468;2023-12-07T09:30:21;99113.06;;;2.29;84.50
81057;BME280;70563;50.084;14.468;2023-12-07T09:32:46;99100.53;;;2.22;84.41
81057;BME280;70563;50.084;14.468;2023-12-07T09:35:12;99100.53;;;2.34;84.85
81057;BME280;70563;50.084;14.468;2023-12-07T09:37:44;99110.94;;;2.34;84.74
81057;BME280;70563;50.084;14.468;2023-12-07T09:40:14;99105.97;;;2.42;85.50
81057;BME280;70563;50.084;14.468;2023-12-07T09:42:41;99111.41;;;2.39;85.16
81057;BME280;70563;50.084;14.468;2023-12-07T09:45:08;99101.69;;;2.41;84.88
81057;BME280;70563;50.084;14.468;2023-12-07T09:47:34;99108.53;;;2.53;84.30
81057;BME280;70563;50.084;14.468;2023-12-07T09:50:01;99105.94;;;2.53;83.95
81057;BME280;70563;50.084;14.468;2023-12-07T09:52:27;99101.66;;;2.52;84.17
81057;BME280;70563;50.084;14.468;2023-12-07T09:54:53;99110.22;;;2.43;82.80
81057;BME280;70563;50.084;14.468;2023-12-07T09:57:20;99106.88;;;2.52;83.52
81057;BME280;70563;50.084;14.468;2023-12-07T09:59:46;99105.94;;;2.53;83.45
81057;BME280;70563;50.084;14.468;2023-12-07T10:02:13;99098.56;;;2.58;83.58
81057;BME280;70563;50.084;14.468;2023-12-07T10:04:39;99104.22;;;2.63;84.57
81057;BME280;70563;50.084;14.468;2023-12-07T10:07:05;99100.72;;;2.53;84.05
81057;BME280;70563;50.084;14.468;2023-12-07T10:09:37;99099.53;;;2.46;84.42
81057;BME280;70563;50.084;14.468;2023-12-07T10:12:04;99097.66;;;2.48;84.64
81057;BME280;70563;50.084;14.468;2023-12-07T10:14:30;99097.16;;;2.54;82.60
81057;BME280;70563;50.084;14.468;2023-12-07T10:16:55;99099.88;;;2.53;83.21
81057;BME280;70563;50.084;14.468;2023-12-07T10:19:22;99090.97;;;2.66;83.89
81057;BME280;70563;50.084;14.468;2023-12-07T10:21:48;99086.41;;;2.80;83.88
81057;BME280;70563;50.084;14.468;2023-12-07T10:24:16;99087.56;;;2.87;83.09
81057;BME280;70563;50.084;14.468;2023-12-07T10:26:43;99085.41;;;2.92;82.72
81057;BME280;70563;50.084;14.468;2023-12-07T10:29:09;99084.19;;;3.07;81.98
81057;BME280;70563;50.084;14.468;2023-12-07T10:31:36;99087.25;;;3.12;81.10
81057;BME280;70563;50.084;14.468;2023-12-07T10:34:02;99090.63;;;3.24;79.14
81057;BME280;70563;50.084;14.468;2023-12-07T10:36:28;99091.75;;;3.31;77.79
81057;BME280;70563;50.084;14.468;2023-12-07T10:38:53;99083.22;;;3.08;78.36
81057;BME280;70563;50.084;14.468;2023-12-07T10:41:21;99081.28;;;3.10;75.90
81057;BME280;70563;50.084;14.468;2023-12-07T10:44:06;99091.44;;;3.04;77.16
81057;BME280;70563;50.084;14.468;2023-12-07T10:46:33;99088.94;;;3.23;76.40
81057;BME280;70563;50.084;14.468;2023-12-07T10:49:00;99090.84;;;3.00;77.56
81057;BME280;70563;50.084;14.468;2023-12-07T10:51:29;99081.22;;;3.00;77.41
81057;BME280;70563;50.084;14.468;2023-12-07T10:53:56;99088.59;;;2.95;78.17
81057;BME280;70563;50.084;14.468;2023-12-07T10:56:29;99081.66;;;2.85;78.21
81057;BME280;70563;50.084;14.468;2023-12-07T10:58:57;99079.53;;;2.79;79.27
81057;BME280;70563;50.084;14.468;2023-12-07T11:01:23;99076.81;;;2.80;79.55
81057;BME280;70563;50.084;14.468;2023-12-07T11:03:50;99080.44;;;2.89;80.63
81057;BME280;70563;50.084;14.468;2023-12-07T11:06:18;99086.69;;;2.76;80.17
81057;BME280;70563;50.084;14.468;2023-12-07T11:09:00;99082.38;;;2.87;81.40
81057;BME280;70563;50.084;14.468;2023-12-07T11:11:35;99085.63;;;3.00;80.25
81057;BME280;70563;50.084;14.468;2023-12-07T11:14:05;99088.19;;;2.79;81.62
81057;BME280;70563;50.084;14.468;2023-12-07T11:16:40;99079.75;;;2.87;82.08
81057;BME280;70563;50.084;14.468;2023-12-07T11:19:42;99083.25;;;2.97;82.40
81057;BME280;70563;50.084;14.468;2023-12-07T11:22:12;99078.78;;;2.88;80.62
81057;BME280;70563;50.084;14.468;2023-12-07T11:24:44;99075.16;;;2.79;81.05
81057;BME280;70563;50.084;14.468;2023-12-07T11:27:16;99079.13;;;2.94;81.38
81057;BME280;70563;50.084;14.468;2023-12-07T11:29:42;99081.13;;;2.70;81.38
81057;BME280;70563;50.084;14.468;2023-12-07T11:32:07;99081.47;;;2.76;81.54
81057;BME280;70563;50.084;14.468;2023-12-07T11:34:36;99082.13;;;2.90;82.08
81057;BME280;70563;50.084;14.468;2023-12-07T11:37:02;99076.53;;;2.94;81.39
81057;BME280;70563;50.084;14.468;2023-12-07T11:39:29;99073.25;;;2.81;80.77
81057;BME280;70563;50.084;14.468;2023-12-07T11:42:06;99083.06;;;2.89;81.59
81057;BME280;70563;50.084;14.468;2023-12-07T11:44:34;99075.50;;;2.86;81.80
81057;BME280;70563;50.084;14.468;2023-12-07T11:47:03;99075.38;;;2.76;81.71
81057;BME280;70563;50.084;14.468;2023-12-07T11:49:28;99069.34;;;2.75;82.56
81057;BME280;70563;50.084;14.468;2023-12-07T11:51:55;99075.28;;;2.78;82.27
81057;BME280;70563;50.084;14.468;2023-12-07T11:54:22;99083.19;;;2.55;81.62
81057;BME280;70563;50.084;14.468;2023-12-07T11:56:55;99088.13;;;2.58;81.89
81057;BME280;70563;50.084;14.468;2023-12-07T11:59:20;99085.16;;;2.63;81.69
81057;BME280;70563;50.084;14.468;2023-12-07T12:01:47;99080.88;;;2.73;82.61
81057;BME280;70563;50.084;14.468;2023-12-07T12:04:12;99073.59;;;2.56;82.36
81057;BME280;70563;50.084;14.468;2023-12-07T12:06:38;99074.09;;;2.82;82.02
81057;BME280;70563;50.084;14.468;2023-12-07T12:09:03;99072.53;;;2.79;81.81
81057;BME280;70563;50.084;14.468;2023-12-07T12:11:28;99080.72;;;2.86;82.03
81057;BME280;70563;50.084;14.468;2023-12-07T12:13:55;99077.19;;;2.75;80.56
81057;BME280;70563;50.084;14.468;2023-12-07T12:16:20;99073.00;;;2.52;81.33
81057;BME280;70563;50.084;14.468;2023-12-07T12:18:46;99071.44;;;2.49;81.55
81057;BME280;70563;50.084;14.468;2023-12-07T12:21:11;99061.41;;;2.45;81.91
81057;BME280;70563;50.084;14.468;2023-12-07T12:23:36;99063.63;;;2.49;81.79
81057;BME280;70563;50.084;14.468;2023-12-07T12:26:03;99065.78;;;2.44;82.38
81057;BME280;70563;50.084;14.468;2023-12-07T12:28:28;99057.34;;;2.52;82.08
81057;BME280;70563;50.084;14.468;2023-12-07T12:30:55;99064.44;;;2.61;81.22
81057;BME280;70563;50.084;14.468;2023-12-07T12:33:20;99062.69;;;2.83;81.59
81057;BME280;70563;50.084;14.468;2023-12-07T12:35:46;99062.63;;;2.73;80.86
81057;BME280;70563;50.084;14.468;2023-12-07T12:38:12;99064.66;;;2.69;81.02
81057;BME280;70563;50.084;14.468;2023-12-07T12:40:38;99063.00;;;2.68;80.76
81057;BME280;70563;50.084;14.468;2023-12-07T12:43:04;99055.78;;;2.61;80.31
81057;BME280;70563;50.084;14.468;2023-12-07T12:45:29;99066.00;;;2.53;80.85
81057;BME280;70563;50.084;14.468;2023-12-07T12:47:55;99056.41;;;2.53;81.30
81057;BME280;70563;50.084;14.468;2023-12-07T12:50:41;99061.75;;;2.84;80.84
81057;BME280;70563;50.084;14.468;2023-12-07T12:53:10;99059.34;;;2.60;80.46
81057;BME280;70563;50.084;14.468;2023-12-07T12:55:41;99062.19;;;2.68;80.72
81057;BME280;70563;50.084;14.468;2023-12-07T12:58:07;99069.16;;;2.67;80.57